Time;durP1;ratioP1;P1;durP2;ratioP2;P2;SDS_P1;SDS_P2;PMS_P1;PMS_P2;Temp;Humidity;BMP_temperature;BMP_pressure;BME280_temperature;BME280_humidity;BME280_pressure;Samples;Min_cycle;Max_cycle;Signal;HPM_P1;HPM_P2
2022/10/23 00:01:27;;;;;;;;;;;;;;;;;;6258743;22;20336;-89
2022/10/23 00:03:53;;;;;;;;;;;;;;;;;;6262815;22;20328;-89
2022/10/23 00:06:19;;;;;;;;;;;;;;;;;;6284522;22;20465;-89
2022/10/23 00:08:45;;;;;;;;;;;;;;;;;;6258971;22;19946;-89
2022/10/23 00:11:11;;;;;;;;;;;;;;;;;;6259973;22;19968;-89
2022/10/23 00:13:37;;;;;;;;;;;;;;;;;;6264544;22;19923;-89
2022/10/23 00:16:03;;;;;;;;;;;;;;;;;;6285948;22;19918;-88
2022/10/23 00:18:28;;;;;;;;;;;;;;;;;;6287131;22;19926;-88
2022/10/23 00:20:54;;;;;;;;;;;;;;;;;;6261771;22;20387;-88
2022/10/23 00:23:20;;;;;;;;;;;;;;;;;;6285916;22;19942;-89
2022/10/23 00:25:46;;;;;;;;;;;;;;;;;;6258802;22;20008;-88
2022/10/23 00:28:12;;;;;;;;;;;;;;;;;;6256311;22;19923;-89
2022/10/23 00:30:38;;;;;;;;;;;;;;;;;;6288546;22;19915;-89
2022/10/23 00:33:04;;;;;;;;;;;;;;;;;;6255825;22;19919;-88
2022/10/23 00:35:30;;;;;;;;;;;;;;;;;;6257622;22;19915;-89
2022/10/23 00:37:56;;;;;;;;;;;;;;;;;;6285084;22;20016;-88
2022/10/23 00:40:22;;;;;;;;;;;;;;;;;;6260177;22;20373;-88
2022/10/23 00:42:48;;;;;;;;;;;;;;;;;;6259996;22;19919;-89
2022/10/23 00:45:14;;;;;;;;;;;;;;;;;;6259606;22;20014;-89
2022/10/23 00:47:40;;;;;;;;;;;;;;;;;;6287122;22;20348;-89
2022/10/23 00:50:06;;;;;;;;;;;;;;;;;;6261151;22;20308;-89
2022/10/23 00:52:32;;;;;;;;;;;;;;;;;;6263253;22;19955;-89
2022/10/23 00:54:58;;;;;;;;;;;;;;;;;;6263376;22;19925;-89
2022/10/23 00:57:27;;;;;;;;;;;;;;;;;;6265227;22;19923;-89
2022/10/23 00:59:53;;;;;;;;;;;;;;;;;;6288291;22;19918;-89
2022/10/23 01:02:19;;;;;;;;;;;;;;;;;;6287271;22;20367;-89
2022/10/23 01:04:45;;;;;;;;;;;;;;;;;;6264084;22;20273;-88
2022/10/23 01:07:11;;;;;;;;;;;;;;;;;;6287826;22;19972;-88
2022/10/23 01:09:37;;;;;;;;;;;;;;;;;;6263589;22;19919;-89
2022/10/23 01:12:03;;;;;;;;;;;;;;;;;;6261570;22;19919;-88
2022/10/23 01:14:29;;;;;;;;;;;;;;;;;;6264719;22;19930;-88
2022/10/23 01:16:55;;;;;;;;;;;;;;;;;;6288811;22;20243;-89
2022/10/23 01:19:21;;;;;;;;;;;;;;;;;;6262213;22;19919;-88
2022/10/23 01:21:47;;;;;;;;;;;;;;;;;;6265772;22;19927;-88
2022/10/23 01:24:13;;;;;;;;;;;;;;;;;;6288802;22;19961;-88
2022/10/23 01:26:39;;;;;;;;;;;;;;;;;;6291476;22;19968;-88
2022/10/23 01:29:05;;;;;;;;;;;;;;;;;;6260980;22;20291;-88
2022/10/23 01:31:31;;;;;;;;;;;;;;;;;;6265120;22;20480;-88
2022/10/23 01:33:57;;;;;;;;;;;;;;;;;;6287618;22;19919;-88
2022/10/23 01:36:23;;;;;;;;;;;;;;;;;;6259833;22;19945;-88
2022/10/23 01:38:49;;;;;;;;;;;;;;;;;;6264181;22;20315;-89
2022/10/23 01:41:17;;;;;;;;;;;;;;;;;;6259099;22;19923;-89
2022/10/23 01:43:44;;;;;;;;;;;;;;;;;;6264644;22;19925;-89
2022/10/23 01:46:10;;;;;;;;;;;;;;;;;;6264936;22;19997;-88
2022/10/23 01:48:36;;;;;;;;;;;;;;;;;;6276081;22;19937;-88
2022/10/23 01:51:02;;;;;;;;;;;;;;;;;;6285773;22;19935;-88
2022/10/23 01:53:29;;;;;;;;;;;;;;;;;;6267858;22;19915;-88
2022/10/23 01:55:55;;;;;;;;;;;;;;;;;;6259413;22;19919;-89
2022/10/23 01:58:21;;;;;;;;;;;;;;;;;;6264585;22;19903;-89
2022/10/23 02:00:47;;;;;;;;;;;;;;;;;;6293707;22;19931;-89
2022/10/23 02:03:13;;;;;;;;;;;;;;;;;;6314679;22;19907;-89
2022/10/23 02:05:39;;;;;;;;;;;;;;;;;;6285524;22;19969;-89
2022/10/23 02:08:05;;;;;;;;;;;;;;;;;;6283778;22;19926;-90
2022/10/23 02:10:31;;;;;;;;;;;;;;;;;;6261931;22;20278;-88
2022/10/23 02:12:57;;;;;;;;;;;;;;;;;;6260938;22;19965;-88
2022/10/23 02:15:23;;;;;;;;;;;;;;;;;;6285399;22;20250;-89
2022/10/23 02:17:49;;;;;;;;;;;;;;;;;;6283946;22;20026;-89
2022/10/23 02:20:18;;;;;;;;;;;;;;;;;;6256991;22;20381;-88
2022/10/23 02:22:44;;;;;;;;;;;;;;;;;;6263614;22;19923;-89
2022/10/23 02:25:10;;;;;;;;;;;;;;;;;;6262327;22;19919;-89
2022/10/23 02:27:36;;;;;;;;;;;;;;;;;;6258122;22;19958;-89
2022/10/23 02:30:02;;;;;;;;;;;;;;;;;;6260000;22;19923;-89
2022/10/23 02:32:28;;;;;;;;;;;;;;;;;;6261798;22;20434;-89
2022/10/23 02:34:54;;;;;;;;;;;;;;;;;;6260335;22;19919;-89
2022/10/23 02:37:24;;;;;;;;;;;;;;;;;;6259431;22;20194;-89
2022/10/23 02:39:50;;;;;;;;;;;;;;;;;;6286933;22;19937;-89
2022/10/23 02:42:18;;;;;;;;;;;;;;;;;;6256405;22;20368;-89
2022/10/23 02:44:44;;;;;;;;;;;;;;;;;;6287929;22;19925;-90
2022/10/23 02:47:10;;;;;;;;;;;;;;;;;;6260619;22;19989;-90
2022/10/23 02:49:36;;;;;;;;;;;;;;;;;;6261415;22;19919;-90
2022/10/23 02:52:02;;;;;;;;;;;;;;;;;;6258108;22;19922;-90
2022/10/23 02:54:28;;;;;;;;;;;;;;;;;;6263739;22;19942;-90
2022/10/23 02:56:54;;;;;;;;;;;;;;;;;;6261599;22;19930;-90
2022/10/23 02:59:20;;;;;;;;;;;;;;;;;;6257417;22;20330;-89
2022/10/23 03:01:46;;;;;;;;;;;;;;;;;;6259055;22;19922;-90
2022/10/23 03:04:11;;;;;;;;;;;;;;;;;;6261194;22;19918;-89
2022/10/23 03:06:37;;;;;;;;;;;;;;;;;;6261519;22;19919;-89
2022/10/23 03:09:03;;;;;;;;;;;;;;;;;;6261854;22;20399;-90
2022/10/23 03:11:29;;;;;;;;;;;;;;;;;;6261863;22;19962;-90
2022/10/23 03:13:58;;;;;;;;;;;;;;;;;;6259644;22;19964;-89
2022/10/23 03:16:24;;;;;;;;;;;;;;;;;;6255602;22;19918;-89
2022/10/23 03:18:50;;;;;;;;;;;;;;;;;;6260333;22;19926;-89
2022/10/23 03:21:16;;;;;;;;;;;;;;;;;;6257868;22;20426;-88
2022/10/23 03:23:44;;;;;;;;;;;;;;;;;;6261024;22;19919;-89
2022/10/23 03:26:10;;;;;;;;;;;;;;;;;;6283859;22;19918;-89
2022/10/23 03:28:36;;;;;;;;;;;;;;;;;;6261294;22;19919;-89
2022/10/23 03:31:10;;;;;;;;;;;;;;;;;;6258421;22;20686;-89
2022/10/23 03:33:36;;;;;;;;;;;;;;;;;;6259441;22;19918;-90
2022/10/23 03:36:02;;;;;;;;;;;;;;;;;;6284807;22;20392;-89
2022/10/23 03:38:31;;;;;;;;;;;;;;;;;;6285636;22;19921;-89
2022/10/23 03:40:57;;;;;;;;;;;;;;;;;;6288942;22;19927;-89
2022/10/23 03:43:23;;;;;;;;;;;;;;;;;;6285064;22;19919;-89
2022/10/23 03:45:50;;;;;;;;;;;;;;;;;;6287874;22;19926;-89
2022/10/23 03:48:16;;;;;;;;;;;;;;;;;;6287510;22;19922;-89
2022/10/23 03:50:42;;;;;;;;;;;;;;;;;;6289000;22;19926;-89
2022/10/23 03:53:08;;;;;;;;;;;;;;;;;;6257696;22;20067;-89
2022/10/23 03:55:34;;;;;;;;;;;;;;;;;;6262960;22;19919;-89
2022/10/23 03:58:00;;;;;;;;;;;;;;;;;;6282729;22;19919;-89
2022/10/23 04:00:26;;;;;;;;;;;;;;;;;;6265922;22;19922;-89
2022/10/23 04:02:52;;;;;;;;;;;;;;;;;;6266143;22;20332;-89
2022/10/23 04:05:18;;;;;;;;;;;;;;;;;;6290891;22;19919;-89
2022/10/23 04:07:44;;;;;;;;;;;;;;;;;;6266295;22;19925;-89
2022/10/23 04:10:13;;;;;;;;;;;;;;;;;;6264948;22;19918;-89
2022/10/23 04:12:39;;;;;;;;;;;;;;;;;;6267033;22;19937;-91
2022/10/23 04:15:05;;;;;;;;;;;;;;;;;;6291015;22;19972;-89
2022/10/23 04:17:31;;;;;;;;;;;;;;;;;;6267800;22;20017;-89
2022/10/23 04:19:57;;;;;;;;;;;;;;;;;;6265858;22;19962;-89
2022/10/23 04:22:23;;;;;;;;;;;;;;;;;;6265333;22;19923;-89
2022/10/23 04:24:49;;;;;;;;;;;;;;;;;;6264753;22;19938;-89
2022/10/23 04:27:15;;;;;;;;;;;;;;;;;;6263238;22;19930;-89
2022/10/23 04:29:41;;;;;;;;;;;;;;;;;;6289681;22;19954;-89
2022/10/23 04:32:07;;;;;;;;;;;;;;;;;;6261277;22;19919;-89
2022/10/23 04:34:33;;;;;;;;;;;;;;;;;;6262356;22;19989;-89
2022/10/23 04:37:03;;;;;;;;;;;;;;;;;;6286847;22;19919;-89
2022/10/23 04:39:28;;;;;;;;;;;;;;;;;;6264799;22;20312;-88
2022/10/23 04:41:55;;;;;;;;;;;;;;;;;;6288446;22;20005;-89
2022/10/23 04:44:20;;;;;;;;;;;;;;;;;;6257494;22;19925;-89
2022/10/23 04:46:46;;;;;;;;;;;;;;;;;;6268140;22;19994;-89
2022/10/23 04:49:12;;;;;;;;;;;;;;;;;;6258132;22;19918;-89
2022/10/23 04:51:38;;;;;;;;;;;;;;;;;;6261518;22;19989;-89
2022/10/23 04:54:04;;;;;;;;;;;;;;;;;;6262559;22;20257;-89
2022/10/23 04:56:30;;;;;;;;;;;;;;;;;;6290813;22;19918;-89
2022/10/23 04:59:14;;;;;;;;;;;;;;;;;;6263779;22;19945;-89
2022/10/23 05:01:49;;;;;;;;;;;;;;;;;;6255661;22;19947;-89
2022/10/23 05:04:39;;;;;;;;;;;;;;;;;;6161049;23;19943;-89
2022/10/23 05:07:17;;;;;;;;;;;;;;;;;;6163419;23;19917;-88
2022/10/23 05:09:43;;;;;;;;;;;;;;;;;;6145546;23;19924;-89
2022/10/23 05:12:09;;;;;;;;;;;;;;;;;;6142884;23;20344;-89
2022/10/23 05:14:35;;;;;;;;;;;;;;;;;;6120051;23;20384;-89
2022/10/23 05:17:01;;;;;;;;;;;;;;;;;;6143606;23;19930;-89
2022/10/23 05:19:27;;;;;;;;;;;;;;;;;;6145137;23;19963;-89
2022/10/23 05:21:54;;;;;;;;;;;;;;;;;;6144390;23;19997;-89
2022/10/23 05:24:20;;;;;;;;;;;;;;;;;;6138384;23;20385;-90
2022/10/23 05:26:46;;;;;;;;;;;;;;;;;;6115958;23;20007;-89
2022/10/23 05:29:12;;;;;;;;;;;;;;;;;;6138129;23;19927;-89
2022/10/23 05:31:41;;;;;;;;;;;;;;;;;;6145616;23;19924;-89
2022/10/23 05:34:10;;;;;;;;;;;;;;;;;;6198621;22;19920;-89
2022/10/23 05:36:36;;;;;;;;;;;;;;;;;;6262734;22;20715;-89
2022/10/23 05:39:02;;;;;;;;;;;;;;;;;;6290439;22;19919;-89
2022/10/23 05:41:28;;;;;;;;;;;;;;;;;;6287834;22;20350;-89
2022/10/23 05:43:56;;;;;;;;;;;;;;;;;;6263591;22;20399;-89
2022/10/23 05:46:22;;;;;;;;;;;;;;;;;;6289829;22;19915;-89
2022/10/23 05:48:48;;;;;;;;;;;;;;;;;;6289047;22;19973;-90
2022/10/23 05:51:19;;;;;;;;;;;;;;;;;;6260718;22;20674;-90
2022/10/23 05:53:45;;;;;;;;;;;;;;;;;;6289666;22;20233;-89
2022/10/23 05:56:11;;;;;;;;;;;;;;;;;;6289628;22;19919;-90
2022/10/23 05:58:37;;;;;;;;;;;;;;;;;;6263489;22;20251;-90
2022/10/23 06:01:03;;;;;;;;;;;;;;;;;;6288917;22;19922;-90
2022/10/23 06:03:29;;;;;;;;;;;;;;;;;;6266927;22;19923;-89
2022/10/23 06:05:55;;;;;;;;;;;;;;;;;;6292903;22;19919;-89
2022/10/23 06:08:20;;;;;;;;;;;;;;;;;;6264474;22;19919;-89
2022/10/23 06:10:46;;;;;;;;;;;;;;;;;;6293765;22;20453;-89
2022/10/23 06:13:12;;;;;;;;;;;;;;;;;;6263262;22;19919;-89
2022/10/23 06:15:38;;;;;;;;;;;;;;;;;;6267475;22;20324;-89
2022/10/23 06:18:04;;;;;;;;;;;;;;;;;;6264049;22;19926;-89
2022/10/23 06:20:31;;;;;;;;;;;;;;;;;;6268664;22;19925;-89
2022/10/23 06:22:56;;;;;;;;;;;;;;;;;;6295549;22;19927;-90
2022/10/23 06:25:22;;;;;;;;;;;;;;;;;;6267807;22;19926;-90
2022/10/23 06:27:48;;;;;;;;;;;;;;;;;;6268502;22;20010;-90
2022/10/23 06:30:14;;;;;;;;;;;;;;;;;;6293263;22;20404;-90
2022/10/23 06:32:40;;;;;;;;;;;;;;;;;;6269639;22;20009;-90
2022/10/23 06:35:09;;;;;;;;;;;;;;;;;;6291775;22;20363;-90
2022/10/23 06:37:38;;;;;;;;;;;;;;;;;;6267040;22;19980;-89
2022/10/23 06:40:06;;;;;;;;;;;;;;;;;;6285601;22;20240;-90
2022/10/23 06:42:32;;;;;;;;;;;;;;;;;;6286514;22;19922;-90
2022/10/23 06:45:04;;;;;;;;;;;;;;;;;;6290532;22;20336;-89
2022/10/23 06:47:30;;;;;;;;;;;;;;;;;;6266226;22;19925;-90
2022/10/23 06:49:56;;;;;;;;;;;;;;;;;;6264204;22;20021;-89
2022/10/23 06:52:22;;;;;;;;;;;;;;;;;;6262927;22;19923;-89
2022/10/23 06:54:48;;;;;;;;;;;;;;;;;;6267833;22;19919;-89
2022/10/23 06:57:14;;;;;;;;;;;;;;;;;;6262585;22;19934;-89
2022/10/23 06:59:42;;;;;;;;;;;;;;;;;;6265768;22;20356;-89
2022/10/23 07:02:11;;;;;;;;;;;;;;;;;;6288013;22;19923;-90
2022/10/23 07:04:38;;;;;;;;;;;;;;;;;;6264487;22;19919;-89
2022/10/23 07:07:05;;;;;;;;;;;;;;;;;;6260345;22;19950;-89
2022/10/23 07:09:31;;;;;;;;;;;;;;;;;;6261088;22;20336;-89
2022/10/23 07:11:58;;;;;;;;;;;;;;;;;;6265767;22;19999;-90
2022/10/23 07:14:24;;;;;;;;;;;;;;;;;;6261177;22;19994;-89
2022/10/23 07:16:50;;;;;;;;;;;;;;;;;;6266269;22;20007;-90
2022/10/23 07:19:16;;;;;;;;;;;;;;;;;;6263891;22;19946;-89
2022/10/23 07:21:42;;;;;;;;;;;;;;;;;;6292421;22;20048;-90
2022/10/23 07:24:08;;;;;;;;;;;;;;;;;;6296119;22;19907;-89
2022/10/23 07:26:34;;;;;;;;;;;;;;;;;;6315059;22;19925;-89
2022/10/23 07:29:00;;;;;;;;;;;;;;;;;;6266347;22;19915;-90
2022/10/23 07:31:26;;;;;;;;;;;;;;;;;;6273449;22;19993;-89
2022/10/23 07:33:52;;;;;;;;;;;;;;;;;;6287604;22;19926;-89
2022/10/23 07:36:18;;;;;;;;;;;;;;;;;;6294314;22;19907;-89
2022/10/23 07:38:44;;;;;;;;;;;;;;;;;;6298252;22;19903;-90
2022/10/23 07:41:10;;;;;;;;;;;;;;;;;;6273826;22;19922;-89
2022/10/23 07:43:36;;;;;;;;;;;;;;;;;;6290763;22;19922;-90
2022/10/23 07:46:02;;;;;;;;;;;;;;;;;;6263013;22;20256;-90
2022/10/23 07:48:28;;;;;;;;;;;;;;;;;;6266107;22;19927;-89
2022/10/23 07:50:54;;;;;;;;;;;;;;;;;;6266748;22;20004;-90
2022/10/23 07:53:20;;;;;;;;;;;;;;;;;;6262970;22;20251;-89
2022/10/23 07:55:46;;;;;;;;;;;;;;;;;;6292433;22;19923;-89
2022/10/23 07:58:12;;;;;;;;;;;;;;;;;;6265320;22;19994;-90
2022/10/23 08:00:38;;;;;;;;;;;;;;;;;;6266830;22;19950;-90
2022/10/23 08:03:04;;;;;;;;;;;;;;;;;;6262182;22;19923;-90
2022/10/23 08:05:30;;;;;;;;;;;;;;;;;;6258459;22;19918;-89
2022/10/23 08:07:56;;;;;;;;;;;;;;;;;;6259404;22;19930;-90
2022/10/23 08:10:22;;;;;;;;;;;;;;;;;;6263354;22;19919;-90
2022/10/23 08:12:48;;;;;;;;;;;;;;;;;;6293541;22;19977;-90
2022/10/23 08:15:14;;;;;;;;;;;;;;;;;;6265877;22;19975;-90
2022/10/23 08:17:43;;;;;;;;;;;;;;;;;;6266075;22;19993;-90
2022/10/23 08:20:09;;;;;;;;;;;;;;;;;;6263450;22;20059;-90
2022/10/23 08:22:37;;;;;;;;;;;;;;;;;;6268866;22;20252;-89
2022/10/23 08:25:03;;;;;;;;;;;;;;;;;;6290019;22;19919;-89
2022/10/23 08:27:29;;;;;;;;;;;;;;;;;;6269857;22;20040;-89
2022/10/23 08:29:55;;;;;;;;;;;;;;;;;;6296221;22;19915;-89
2022/10/23 08:32:21;;;;;;;;;;;;;;;;;;6266340;22;19919;-89
2022/10/23 08:34:47;;;;;;;;;;;;;;;;;;6268728;22;20393;-89
2022/10/23 08:37:13;;;;;;;;;;;;;;;;;;6265954;22;19950;-89
2022/10/23 08:39:40;;;;;;;;;;;;;;;;;;6269324;22;20240;-89
2022/10/23 08:42:06;;;;;;;;;;;;;;;;;;6279359;22;19930;-90
2022/10/23 08:44:32;;;;;;;;;;;;;;;;;;6263840;22;19918;-89
2022/10/23 08:46:59;;;;;;;;;;;;;;;;;;6286614;22;20283;-89
2022/10/23 08:49:27;;;;;;;;;;;;;;;;;;6262084;22;20255;-90
2022/10/23 08:51:53;;;;;;;;;;;;;;;;;;6265075;22;19937;-89
2022/10/23 08:54:22;;;;;;;;;;;;;;;;;;6261446;22;20312;-89
2022/10/23 08:56:48;;;;;;;;;;;;;;;;;;6264605;22;19914;-89
2022/10/23 08:59:18;;;;;;;;;;;;;;;;;;6281744;22;20328;-89
2022/10/23 09:01:44;;;;;;;;;;;;;;;;;;6262786;22;20217;-89
2022/10/23 09:04:10;;;;;;;;;;;;;;;;;;6285271;22;19919;-89
2022/10/23 09:06:36;;;;;;;;;;;;;;;;;;6286509;22;19923;-89
2022/10/23 09:09:02;;;;;;;;;;;;;;;;;;6288421;22;19926;-88
2022/10/23 09:11:28;;;;;;;;;;;;;;;;;;6264916;22;19990;-89
2022/10/23 09:13:54;;;;;;;;;;;;;;;;;;6262590;22;20430;-89
2022/10/23 09:16:20;;;;;;;;;;;;;;;;;;6283668;22;20566;-89
2022/10/23 09:18:46;;;;;;;;;;;;;;;;;;6284637;22;19926;-90
2022/10/23 09:21:12;;;;;;;;;;;;;;;;;;6255767;22;19981;-90
2022/10/23 09:23:38;;;;;;;;;;;;;;;;;;6285867;22;20248;-90
2022/10/23 09:26:04;;;;;;;;;;;;;;;;;;6258014;22;19993;-90
2022/10/23 09:28:30;;;;;;;;;;;;;;;;;;6263272;22;19919;-89
2022/10/23 09:30:56;;;;;;;;;;;;;;;;;;6261436;22;19958;-89
2022/10/23 09:33:25;;;;;;;;;;;;;;;;;;6256905;22;19957;-89
2022/10/23 09:35:51;;;;;;;;;;;;;;;;;;6286106;22;19919;-90
2022/10/23 09:38:17;;;;;;;;;;;;;;;;;;6258874;22;19926;-89
2022/10/23 09:40:43;;;;;;;;;;;;;;;;;;6262132;22;20151;-89
2022/10/23 09:43:09;;;;;;;;;;;;;;;;;;6283996;22;19919;-89
2022/10/23 09:45:36;;;;;;;;;;;;;;;;;;6286962;22;19946;-89
2022/10/23 09:48:02;;;;;;;;;;;;;;;;;;6256880;22;19929;-89
2022/10/23 09:50:28;;;;;;;;;;;;;;;;;;6282026;22;19973;-89
2022/10/23 09:52:54;;;;;;;;;;;;;;;;;;6256059;22;19918;-89
2022/10/23 09:55:21;;;;;;;;;;;;;;;;;;6256206;22;19918;-88
2022/10/23 09:57:47;;;;;;;;;;;;;;;;;;6262963;22;19919;-89
2022/10/23 10:00:13;;;;;;;;;;;;;;;;;;6259781;22;20169;-89
2022/10/23 10:02:39;;;;;;;;;;;;;;;;;;6287478;22;19923;-90
2022/10/23 10:05:08;;;;;;;;;;;;;;;;;;6257477;22;20004;-89
2022/10/23 10:07:34;;;;;;;;;;;;;;;;;;6256841;22;20446;-90
2022/10/23 10:10:00;;;;;;;;;;;;;;;;;;6257555;22;19925;-90
2022/10/23 10:12:26;;;;;;;;;;;;;;;;;;6262378;22;19926;-90
2022/10/23 10:14:52;;;;;;;;;;;;;;;;;;6261099;22;20015;-90
2022/10/23 10:17:18;;;;;;;;;;;;;;;;;;6284780;22;19919;-90
2022/10/23 10:19:46;;;;;;;;;;;;;;;;;;6287656;22;19918;-89
2022/10/23 10:22:12;;;;;;;;;;;;;;;;;;6258875;22;19972;-89
2022/10/23 10:24:38;;;;;;;;;;;;;;;;;;6260971;22;19925;-89
2022/10/23 10:27:04;;;;;;;;;;;;;;;;;;6284793;22;20299;-90
2022/10/23 10:29:30;;;;;;;;;;;;;;;;;;6260935;22;19985;-90
2022/10/23 10:31:56;;;;;;;;;;;;;;;;;;6263276;22;19925;-90
2022/10/23 10:34:22;;;;;;;;;;;;;;;;;;6256750;22;20505;-89
2022/10/23 10:36:48;;;;;;;;;;;;;;;;;;6261414;22;19972;-89
2022/10/23 10:39:15;;;;;;;;;;;;;;;;;;6258054;22;19961;-90
2022/10/23 10:41:41;;;;;;;;;;;;;;;;;;6260535;22;19923;-90
2022/10/23 10:44:09;;;;;;;;;;;;;;;;;;6286065;22;19923;-90
2022/10/23 10:46:35;;;;;;;;;;;;;;;;;;6287803;22;19950;-90
2022/10/23 10:49:01;;;;;;;;;;;;;;;;;;6259761;22;19941;-90
2022/10/23 10:51:27;;;;;;;;;;;;;;;;;;6290411;22;20387;-90
2022/10/23 10:53:53;;;;;;;;;;;;;;;;;;6291517;22;20389;-90
2022/10/23 10:56:19;;;;;;;;;;;;;;;;;;6258999;22;20383;-89
2022/10/23 10:58:45;;;;;;;;;;;;;;;;;;6290918;22;19918;-89
2022/10/23 11:01:11;;;;;;;;;;;;;;;;;;6258361;22;19929;-89
2022/10/23 11:03:37;;;;;;;;;;;;;;;;;;6258564;22;19934;-89
2022/10/23 11:06:03;;;;;;;;;;;;;;;;;;6260404;22;19919;-89
2022/10/23 11:08:29;;;;;;;;;;;;;;;;;;6260610;22;20415;-90
2022/10/23 11:10:55;;;;;;;;;;;;;;;;;;6257633;22;19927;-90
2022/10/23 11:13:21;;;;;;;;;;;;;;;;;;6286585;22;19919;-91
2022/10/23 11:15:47;;;;;;;;;;;;;;;;;;6288898;22;19950;-90
2022/10/23 11:18:13;;;;;;;;;;;;;;;;;;6254340;22;19919;-90
2022/10/23 11:20:39;;;;;;;;;;;;;;;;;;6262897;22;19919;-90
2022/10/23 11:23:10;;;;;;;;;;;;;;;;;;6282809;22;20001;-90
2022/10/23 11:25:36;;;;;;;;;;;;;;;;;;6266205;22;19922;-90
2022/10/23 11:28:05;;;;;;;;;;;;;;;;;;6261250;22;19995;-90
2022/10/23 11:30:31;;;;;;;;;;;;;;;;;;6291615;22;19973;-90
2022/10/23 11:33:02;;;;;;;;;;;;;;;;;;6264928;22;19997;-90
2022/10/23 11:35:29;;;;;;;;;;;;;;;;;;6266116;22;19968;-90
2022/10/23 11:37:55;;;;;;;;;;;;;;;;;;6264797;22;19919;-90
2022/10/23 11:40:21;;;;;;;;;;;;;;;;;;6287351;22;19926;-90
2022/10/23 11:42:47;;;;;;;;;;;;;;;;;;6288492;22;19929;-89
2022/10/23 11:45:13;;;;;;;;;;;;;;;;;;6263388;22;19949;-89
2022/10/23 11:47:40;;;;;;;;;;;;;;;;;;6290665;22;20457;-88
2022/10/23 11:50:09;;;;;;;;;;;;;;;;;;6260868;22;19919;-89
2022/10/23 11:52:35;;;;;;;;;;;;;;;;;;6287048;22;19989;-89
2022/10/23 11:55:04;;;;;;;;;;;;;;;;;;6256589;22;20342;-89
2022/10/23 11:57:30;;;;;;;;;;;;;;;;;;6256774;22;19919;-89
2022/10/23 11:59:56;;;;;;;;;;;;;;;;;;6264170;22;20362;-89
2022/10/23 12:02:22;;;;;;;;;;;;;;;;;;6291828;22;20403;-89
2022/10/23 12:04:51;;;;;;;;;;;;;;;;;;6264714;22;19925;-89
2022/10/23 12:07:17;;;;;;;;;;;;;;;;;;6261570;22;19919;-90
2022/10/23 12:09:43;;;;;;;;;;;;;;;;;;6263079;22;19919;-91
2022/10/23 12:12:12;;;;;;;;;;;;;;;;;;6258159;22;19919;-91
2022/10/23 12:14:41;;;;;;;;;;;;;;;;;;6262766;22;20316;-90
2022/10/23 12:17:10;;;;;;;;;;;;;;;;;;6287743;22;19919;-90
2022/10/23 12:19:44;;;;;;;;;;;;;;;;;;6261992;22;19922;-91
2022/10/23 12:22:13;;;;;;;;;;;;;;;;;;6260158;22;19919;-91
2022/10/23 12:24:42;;;;;;;;;;;;;;;;;;6284590;22;19919;-90
2022/10/23 12:27:11;;;;;;;;;;;;;;;;;;6257922;22;20382;-90
2022/10/23 12:29:40;;;;;;;;;;;;;;;;;;6262793;22;20392;-90
2022/10/23 12:32:12;;;;;;;;;;;;;;;;;;6278583;22;19951;-90
2022/10/23 12:34:41;;;;;;;;;;;;;;;;;;6260334;22;19987;-91
2022/10/23 12:37:07;;;;;;;;;;;;;;;;;;6282600;22;19996;-90
2022/10/23 12:39:36;;;;;;;;;;;;;;;;;;6284500;22;19919;-91
2022/10/23 12:42:02;;;;;;;;;;;;;;;;;;6255027;22;19922;-90
2022/10/23 12:44:35;;;;;;;;;;;;;;;;;;6258986;22;19950;-90
2022/10/23 12:47:02;;;;;;;;;;;;;;;;;;6258621;22;19990;-91
2022/10/23 12:49:30;;;;;;;;;;;;;;;;;;6260265;22;20043;-91
2022/10/23 12:51:58;;;;;;;;;;;;;;;;;;6260078;22;19930;-92
2022/10/23 12:54:27;;;;;;;;;;;;;;;;;;6286862;22;19930;-90
2022/10/23 12:57:05;;;;;;;;;;;;;;;;;;6259426;22;19919;-91
2022/10/23 12:59:39;;;;;;;;;;;;;;;;;;6303273;22;19903;-91
2022/10/23 13:02:05;;;;;;;;;;;;;;;;;;6313634;22;20093;-91
2022/10/23 13:04:31;;;;;;;;;;;;;;;;;;6289948;22;19934;-92
2022/10/23 13:07:00;;;;;;;;;;;;;;;;;;6259201;22;19919;-91
2022/10/23 13:09:26;;;;;;;;;;;;;;;;;;6259489;22;19929;-90
2022/10/23 13:11:54;;;;;;;;;;;;;;;;;;6272211;22;19922;-91
2022/10/23 13:14:21;;;;;;;;;;;;;;;;;;6290755;22;19948;-90
2022/10/23 13:16:46;;;;;;;;;;;;;;;;;;6291507;22;19940;-91
2022/10/23 13:19:15;;;;;;;;;;;;;;;;;;6278148;22;19933;-91
2022/10/23 13:21:41;;;;;;;;;;;;;;;;;;6281212;22;20269;-89
2022/10/23 13:24:10;;;;;;;;;;;;;;;;;;6255414;22;19941;-91
2022/10/23 13:26:41;;;;;;;;;;;;;;;;;;6259167;22;19923;-91
2022/10/23 13:29:07;;;;;;;;;;;;;;;;;;6280133;22;20331;-90
2022/10/23 13:31:33;;;;;;;;;;;;;;;;;;6257306;22;19988;-91
2022/10/23 13:33:59;;;;;;;;;;;;;;;;;;6259336;22;19918;-90
2022/10/23 13:36:26;;;;;;;;;;;;;;;;;;6259856;22;19918;-90
2022/10/23 13:38:52;;;;;;;;;;;;;;;;;;6259190;22;19990;-91
2022/10/23 13:41:18;;;;;;;;;;;;;;;;;;6254621;22;19969;-90
2022/10/23 13:43:44;;;;;;;;;;;;;;;;;;6282997;22;19985;-90
2022/10/23 13:46:20;;;;;;;;;;;;;;;;;;;;;
2022/10/23 13:48:46;;;;;;;;;;;;;;;;;;6284180;22;20259;-90
2022/10/23 13:51:12;;;;;;;;;;;;;;;;;;6253073;22;19919;-90
2022/10/23 13:53:38;;;;;;;;;;;;;;;;;;6259065;22;19976;-91
2022/10/23 13:56:04;;;;;;;;;;;;;;;;;;6255605;22;19923;-90
2022/10/23 13:58:39;;;;;;;;;;;;;;;;;;6257447;22;19919;-90
2022/10/23 14:01:05;;;;;;;;;;;;;;;;;;6251145;22;20436;-91
2022/10/23 14:03:34;;;;;;;;;;;;;;;;;;6252849;22;20395;-90
2022/10/23 14:06:03;;;;;;;;;;;;;;;;;;6276267;22;19926;-91
2022/10/23 14:08:29;;;;;;;;;;;;;;;;;;6282270;22;20664;-91
2022/10/23 14:10:55;;;;;;;;;;;;;;;;;;6259102;22;19922;-91
2022/10/23 14:13:21;;;;;;;;;;;;;;;;;;6282188;22;20340;-90
2022/10/23 14:15:50;;;;;;;;;;;;;;;;;;6260343;22;19925;-90
2022/10/23 14:18:16;;;;;;;;;;;;;;;;;;6256876;22;20019;-90
2022/10/23 14:20:42;;;;;;;;;;;;;;;;;;6262134;22;20453;-90
2022/10/23 14:23:08;;;;;;;;;;;;;;;;;;6255159;22;19923;-90
2022/10/23 14:25:34;;;;;;;;;;;;;;;;;;6257182;22;19990;-91
2022/10/23 14:28:03;;;;;;;;;;;;;;;;;;6254898;22;20535;-91
2022/10/23 14:30:36;;;;;;;;;;;;;;;;;;6282340;22;20243;-90
2022/10/23 14:33:05;;;;;;;;;;;;;;;;;;6255462;22;20341;-90
2022/10/23 14:35:34;;;;;;;;;;;;;;;;;;6256977;22;19915;-91
2022/10/23 14:38:00;;;;;;;;;;;;;;;;;;6257427;22;20013;-91
2022/10/23 14:40:26;;;;;;;;;;;;;;;;;;6259493;22;20029;-90
2022/10/23 14:42:54;;;;;;;;;;;;;;;;;;6283873;22;20368;-91
2022/10/23 14:45:20;;;;;;;;;;;;;;;;;;6252513;22;20013;-91
2022/10/23 14:47:55;;;;;;;;;;;;;;;;;;6258600;22;19919;-91
2022/10/23 14:50:24;;;;;;;;;;;;;;;;;;6254474;22;20020;-91
2022/10/23 14:52:56;;;;;;;;;;;;;;;;;;6284877;22;19941;-91
2022/10/23 14:55:22;;;;;;;;;;;;;;;;;;6281133;22;19925;-91
2022/10/23 14:57:48;;;;;;;;;;;;;;;;;;6256147;22;20252;-91
2022/10/23 15:00:14;;;;;;;;;;;;;;;;;;6256141;22;19993;-91
2022/10/23 15:02:40;;;;;;;;;;;;;;;;;;6260956;22;19923;-90
2022/10/23 15:05:10;;;;;;;;;;;;;;;;;;6253484;22;19923;-90
2022/10/23 15:07:36;;;;;;;;;;;;;;;;;;6256640;22;19919;-90
2022/10/23 15:10:04;;;;;;;;;;;;;;;;;;6252842;22;19989;-90
2022/10/23 15:12:33;;;;;;;;;;;;;;;;;;6255389;22;19915;-91
2022/10/23 15:15:02;;;;;;;;;;;;;;;;;;6253225;22;19919;-90
2022/10/23 15:17:30;;;;;;;;;;;;;;;;;;6259327;22;19923;-91
2022/10/23 15:19:56;;;;;;;;;;;;;;;;;;6286353;22;19958;-91
2022/10/23 15:22:22;;;;;;;;;;;;;;;;;;6285435;22;19923;-91
2022/10/23 15:24:59;;;;;;;;;;;;;;;;;;;;;
2022/10/23 15:27:28;;;;;;;;;;;;;;;;;;6282622;22;19923;-91
2022/10/23 15:29:54;;;;;;;;;;;;;;;;;;6258187;22;19919;-90
2022/10/23 15:32:25;;;;;;;;;;;;;;;;;;6253966;22;20630;-90
2022/10/23 15:34:57;;;;;;;;;;;;;;;;;;6256604;22;19976;-91
2022/10/23 15:37:38;;;;;;;;;;;;;;;;;;6254249;22;20347;-91
2022/10/23 15:40:07;;;;;;;;;;;;;;;;;;6257228;22;19918;-91
2022/10/23 15:42:51;;;;;;;;;;;;;;;;;;6255215;22;19923;-90
2022/10/23 15:45:26;;;;;;;;;;;;;;;;;;6256949;22;19919;-91
2022/10/23 15:47:58;;;;;;;;;;;;;;;;;;6255471;22;19925;-91
2022/10/23 15:50:30;;;;;;;;;;;;;;;;;;6252881;22;20303;-91
2022/10/23 15:53:06;;;;;;;;;;;;;;;;;;6255264;22;19998;-90
2022/10/23 15:55:32;;;;;;;;;;;;;;;;;;6282205;22;20187;-90
2022/10/23 15:58:02;;;;;;;;;;;;;;;;;;6258838;22;19919;-90
2022/10/23 16:00:34;;;;;;;;;;;;;;;;;;6283648;22;19976;-90
2022/10/23 16:03:09;;;;;;;;;;;;;;;;;;6254911;22;19991;-90
2022/10/23 16:05:38;;;;;;;;;;;;;;;;;;6260992;22;19918;-90
2022/10/23 16:08:09;;;;;;;;;;;;;;;;;;6257165;22;19929;-91
2022/10/23 16:10:35;;;;;;;;;;;;;;;;;;6258994;22;19926;-91
2022/10/23 16:13:08;;;;;;;;;;;;;;;;;;6254095;22;20312;-90
2022/10/23 16:15:36;;;;;;;;;;;;;;;;;;6255651;22;19923;-90
2022/10/23 16:18:08;;;;;;;;;;;;;;;;;;6256440;22;19950;-91
2022/10/23 16:20:37;;;;;;;;;;;;;;;;;;6259145;22;20026;-91
2022/10/23 16:23:10;;;;;;;;;;;;;;;;;;6280224;22;20592;-90
2022/10/23 16:25:42;;;;;;;;;;;;;;;;;;6259756;22;19919;-90
2022/10/23 16:28:17;;;;;;;;;;;;;;;;;;6254143;22;20319;-91
2022/10/23 16:30:49;;;;;;;;;;;;;;;;;;6258878;22;20686;-91
2022/10/23 16:33:20;;;;;;;;;;;;;;;;;;6252150;22;19919;-90
2022/10/23 16:35:49;;;;;;;;;;;;;;;;;;6254479;22;20393;-91
2022/10/23 16:38:19;;;;;;;;;;;;;;;;;;6253618;22;20339;-91
2022/10/23 16:40:45;;;;;;;;;;;;;;;;;;6254974;22;19919;-90
2022/10/23 16:43:11;;;;;;;;;;;;;;;;;;6254419;22;19984;-90
2022/10/23 16:45:49;;;;;;;;;;;;;;;;;;6255853;22;19918;-90